TOA weather

Zamperini Field
Torrance, California, United States

Public forecast

Using degrees Fahrenheit for public forecast. Weather courtesy of forecast.io.

METAR (pilot weather report)

Report is more than 6 hours old.

Retrieved 2019/09/23 02:49 UTC (9 hours ago):

KTOA 230249Z 28006KT 10SM SCT200 21/18 A2986

TAF (pilot weather forecast)

Closest forecast is Los Angeles International Airport, 9.0 nm (16.7 km) NNW. Retrieved 2019/09/23 12:48 UTC (0 seconds ago):

TAF KLAX 231146Z 2312/2418 11006KT P6SM FEW007 FM231300 13006KT 5SM BR BKN006 FM231600 VRB03KT 6SM BR BKN008 FM231700 26010KT P6SM SKC FM240400 26006KT P6SM BKN007 FM241400 VRB03KT P6SM FEW010